Información del aeropuerto LESU

Información de pista
Pista 04 Longitud 4396 ft Anchura 98 ft
Elevación 0 ft Umbral 0 ft Rumbo 39
Pista 22 Longitud 4396 ft Anchura 98 ft
Elevación 0 ft Umbral 0 ft Rumbo 219
Frecuencias del aeropuerto
Radioayudas del aeropuerto
Tipo NDB Nombre Seo De Urgel Frecuencia 340 KHZ
Información meteorológica del aeropuerto y NOTAM
ADDS - METARS form results

(1527 UTC 16 January 2021)
Data provider http://aviationweather.gov/metar/data/
 
METAR text: LESU 161500Z 22008KT 190V250 9999 FEW050 09/M06 Q1022
Conditions at: LESU (LA SEU , ES) observed 1500 UTC 16 January 2021
Temperature: 9.0°C (48°F)
Dewpoint: -6.0°C (21°F) [RH = 34%]
Pressure (altimeter): 30.18 inches Hg (1022.0 mb)
Winds: from the SW (220 degrees) at 9 MPH (8 knots; 4.1 m/s)
Visibility: 6 or more miles (10+ km)
Ceiling: at least 12,000 feet AGL
Clouds: few clouds at 5000 feet AGL
Weather: no significant weather observed at this time

METAR text: LESU 161430Z 24008KT 210V270 9999 FEW060 10/M07 Q1022
Conditions at: LESU (LA SEU , ES) observed 1430 UTC 16 January 2021
Temperature: 10.0°C (50°F)
Dewpoint: -7.0°C (19°F) [RH = 29%]
Pressure (altimeter): 30.18 inches Hg (1022.0 mb)
Winds: from the WSW (240 degrees) at 9 MPH (8 knots; 4.1 m/s)
Visibility: 6 or more miles (10+ km)
Ceiling: at least 12,000 feet AGL
Clouds: few clouds at 6000 feet AGL
Weather: no significant weather observed at this time

Forecast for: LESU (LA SEU , ES)
Text: TAF LESU 161400Z 1615/1715 VRB04KT 9999 FEW060 TX10/1714Z TNM03/1706Z
Forecast period: 1500 UTC 16 January 2021 to 1500 UTC 17 January 2021
Forecast type: FROM: standard forecast or significant change
Winds: variable direction winds at 5 MPH (4 knots; 2.1 m/s)
Visibility: 6 or more miles (10+ km)
Ceiling: at least 12,000 feet AGL
Clouds: few clouds at 6000 feet AGL
Weather: no significant weather forecast for this period